West Magic, Idaho
Current Conditions -  °F | °C
As of 7:53 AM on Thursday 30 Oct 2014 (Local Time) from KJER Reporting Station
Clear Clear  
Wind Chill: 33°   Ceiling: Unl
Heat Index: 42°   Visibility: 10mi
Dew Point: 31°   Wind: 20mph
Humidity: 65%   Direction: 50°NE
Pressure: 30.19"   Gusts: NA
Location:  42.9609°N, 114.301°W
Report Text: KJER 301353Z AUTO 05017KT 10SM CLR 06/M01 A3019 RMK AO2 SLP222 T00561006
Loading
Personal Weather Stations






























Interactive Weather Map
Tropical Storm Tracking
New forecast layout! Learn more

10-Day Weather Forecast

Advertisements
Track Severe Weather on mobile